Time;durP1;ratioP1;P1;durP2;ratioP2;P2;SDS_P1;SDS_P2;PMS_P1;PMS_P2;Temp;Humidity;BMP_temperature;BMP_pressure;BME280_temperature;BME280_humidity;BME280_pressure;Samples;Min_cycle;Max_cycle;Signal;HPM_P1;HPM_P2
2023/01/29 00:00:15;;;;;;;19.20;17.50;;;;;;;-2.35;91.01;98688.11;108949;1273;22283;-83
2023/01/29 00:03:04;;;;;;;18.50;16.70;;;;;;;-2.32;91.09;98686.77;108938;1276;22248;-82
2023/01/29 00:05:34;;;;;;;16.30;14.70;;;;;;;-2.33;90.81;98684.02;108947;1292;22954;-83
2023/01/29 00:08:02;;;;;;;19.20;17.30;;;;;;;-2.30;91.04;98683.94;108936;1296;23047;-83
2023/01/29 00:10:30;;;;;;;19.50;17.40;;;;;;;-2.28;91.05;98680.08;108789;1291;22216;-83
2023/01/29 00:12:59;;;;;;;20.10;18.00;;;;;;;-2.31;91.14;98686.01;108944;1296;22230;-83
2023/01/29 00:15:27;;;;;;;17.80;16.10;;;;;;;-2.33;91.16;98686.48;108795;1290;22947;-81
2023/01/29 00:17:58;;;;;;;20.20;18.20;;;;;;;-2.34;91.22;98692.40;108954;1276;22233;-82
2023/01/29 00:20:27;;;;;;;20.70;18.60;;;;;;;-2.32;91.08;98696.56;108976;1276;22326;-82
2023/01/29 00:22:55;;;;;;;21.50;19.50;;;;;;;-2.34;91.37;98699.99;108859;1289;22284;-82
2023/01/29 00:25:23;;;;;;;20.00;18.20;;;;;;;-2.39;91.42;98695.92;108934;1289;22375;-82
2023/01/29 00:27:51;;;;;;;20.80;18.90;;;;;;;-2.42;91.33;98689.92;108956;1296;22296;-82
2023/01/29 00:30:20;;;;;;;21.50;19.60;;;;;;;-2.39;91.46;98699.43;108964;1296;22394;-83
2023/01/29 00:32:48;;;;;;;22.60;20.40;;;;;;;-2.39;91.56;98700.00;108686;1296;23019;-82
2023/01/29 00:35:16;;;;;;;20.80;18.90;;;;;;;-2.42;91.88;98704.22;108956;1289;22244;-82
2023/01/29 00:37:44;;;;;;;19.30;17.50;;;;;;;-2.46;91.97;98701.08;108795;1296;22340;-84
2023/01/29 00:40:12;;;;;;;20.40;18.50;;;;;;;-2.47;91.81;98697.70;108942;1288;22368;-84
2023/01/29 00:45:29;;;;;;;22.60;20.50;;;;;;;-2.43;91.51;98697.44;108931;1296;22257;-82
2023/01/29 00:47:57;;;;;;;20.10;18.20;;;;;;;-2.43;91.68;98701.79;108717;1291;22296;-82
2023/01/29 00:50:29;;;;;;;20.60;18.40;;;;;;;-2.41;91.66;98700.55;108853;1289;23064;-82
2023/01/29 00:52:57;;;;;;;19.70;17.90;;;;;;;-2.39;91.90;98705.34;108961;1289;22949;-83
2023/01/29 00:55:25;;;;;;;21.60;19.60;;;;;;;-2.37;92.39;98703.77;108951;1288;22231;-84
2023/01/29 00:57:53;;;;;;;22.20;20.20;;;;;;;-2.41;92.08;98706.70;108948;1296;22257;-83
2023/01/29 01:00:21;;;;;;;22.60;20.40;;;;;;;-2.42;91.91;98705.11;108953;1296;22362;-82
2023/01/29 01:03:07;;;;;;;22.00;19.90;;;;;;;-2.42;92.01;98709.09;108973;1289;22341;-82
2023/01/29 01:05:37;;;;;;;24.30;22.00;;;;;;;-2.40;92.42;98704.64;108897;1297;22949;-83
2023/01/29 01:11:01;;;;;;;27.50;24.80;;;;;;;-2.51;92.46;98702.11;109072;1289;22237;-83
2023/01/29 01:13:31;;;;;;;32.10;29.10;;;;;;;-2.52;92.81;98709.97;108874;1292;22244;-82
2023/01/29 01:15:59;;;;;;;30.40;27.50;;;;;;;-2.57;92.73;98714.58;108972;1290;23112;-82
2023/01/29 01:18:30;;;;;;;29.00;26.40;;;;;;;-2.68;92.87;98712.94;108992;1296;23088;-83
2023/01/29 01:20:58;;;;;;;30.00;27.30;;;;;;;-2.70;93.17;98710.73;108861;1282;22335;-83
2023/01/29 01:23:27;;;;;;;33.90;30.90;;;;;;;-2.72;93.01;98712.38;108839;1290;22253;-83
2023/01/29 01:25:55;;;;;;;35.10;31.90;;;;;;;-2.69;93.24;98719.29;109017;1288;22304;-83
2023/01/29 01:28:24;;;;;;;34.70;31.50;;;;;;;-2.76;93.01;98722.73;108908;1296;22255;-83
2023/01/29 01:30:52;;;;;;;32.20;29.20;;;;;;;-2.80;93.12;98725.63;109019;1296;22153;-84
2023/01/29 01:33:59;;;;;;;32.60;29.50;;;;;;;-2.77;93.19;98730.16;109050;1296;22245;-83
2023/01/29 01:36:48;;;;;;;31.60;28.60;;;;;;;-2.78;93.32;98719.44;109098;1296;22300;-83
2023/01/29 01:39:16;;;;;;;32.50;29.60;;;;;;;-2.80;93.22;98716.67;109079;1296;22222;-83
2023/01/29 01:41:45;;;;;;;27.10;24.50;;;;;;;-2.79;93.38;98718.12;109098;1296;22956;-82
2023/01/29 01:44:51;;;;;;;25.20;22.80;;;;;;;-2.77;93.45;98718.42;109234;1296;22215;-82
2023/01/29 01:47:25;;;;;;;24.00;21.80;;;;;;;-2.73;93.35;98716.95;109301;1296;22249;-82
2023/01/29 01:49:56;;;;;;;23.70;21.60;;;;;;;-2.70;93.48;98709.86;109198;1296;23361;-82
2023/01/29 01:52:24;;;;;;;23.60;21.50;;;;;;;-2.72;93.03;98705.07;109162;1281;22308;-82
2023/01/29 01:54:52;;;;;;;23.10;21.00;;;;;;;-2.79;92.67;98707.77;109107;1296;22255;-83
2023/01/29 01:57:23;;;;;;;21.80;19.70;;;;;;;-2.80;92.51;98707.96;109077;1296;22221;-82
2023/01/29 02:00:08;;;;;;;21.40;19.40;;;;;;;-2.77;92.48;98702.48;108993;1296;22294;-83
2023/01/29 02:11:13;;;;;;;21.00;19.10;;;;;;;-2.74;91.82;98688.36;109097;1296;22207;-83
2023/01/29 02:13:42;;;;;;;23.90;21.70;;;;;;;-2.72;91.61;98686.67;109046;1296;22483;-83
2023/01/29 02:16:10;;;;;;;22.00;20.10;;;;;;;-2.68;91.54;98675.90;108970;1296;22203;-82
2023/01/29 02:18:38;;;;;;;22.90;20.90;;;;;;;-2.67;91.53;98674.29;109085;1296;22291;-83
2023/01/29 02:21:43;;;;;;;23.30;21.20;;;;;;;-2.67;91.12;98677.45;109133;1296;22271;-83
2023/01/29 02:24:29;;;;;;;22.40;20.40;;;;;;;-2.72;90.88;98669.02;109065;1292;22276;-82
2023/01/29 02:27:20;;;;;;;21.40;19.40;;;;;;;-2.69;90.95;98668.27;109102;1296;22128;-82
2023/01/29 02:30:05;;;;;;;21.40;19.50;;;;;;;-2.64;90.74;98672.27;108986;1296;22330;-83
2023/01/29 02:33:12;;;;;;;25.60;22.90;;;;;;;-2.65;90.51;98675.27;109045;1296;22232;-83
2023/01/29 02:35:51;;;;;;;30.00;27.00;;;;;;;-2.69;90.35;98665.59;109051;1296;22163;-81
2023/01/29 02:38:49;;;;;;;28.50;25.60;;;;;;;-2.71;90.37;98666.59;109126;1282;22314;-82
2023/01/29 02:41:28;;;;;;;26.20;23.70;;;;;;;-2.70;90.11;98672.13;108812;1296;22311;-83
2023/01/29 02:44:02;;;;;;;24.00;21.80;;;;;;;-2.73;90.08;98661.14;109122;1296;22245;-82
2023/01/29 02:47:04;;;;;;;23.90;21.80;;;;;;;-2.78;90.08;98658.73;109180;1296;23147;-82
2023/01/29 02:49:46;;;;;;;23.30;21.20;;;;;;;-2.81;90.32;98657.89;108987;1296;22263;-83
2023/01/29 02:52:20;;;;;;;22.40;20.40;;;;;;;-2.79;90.31;98661.52;109076;1296;22245;-81
2023/01/29 02:55:06;;;;;;;23.70;21.50;;;;;;;-2.77;90.42;98659.98;109111;1296;22258;-82
2023/01/29 02:57:38;;;;;;;25.20;22.80;;;;;;;-2.76;90.19;98658.86;108863;1296;22299;-83
2023/01/29 03:00:12;;;;;;;23.20;21.30;;;;;;;-2.78;90.17;98660.31;108933;1296;23153;-83
2023/01/29 03:03:19;;;;;;;23.60;21.40;;;;;;;-2.81;89.82;98669.74;108840;1296;23123;-83
2023/01/29 03:06:01;;;;;;;20.20;18.20;;;;;;;-2.79;90.11;98669.31;108699;1296;22255;-83
2023/01/29 03:08:44;;;;;;;18.10;16.40;;;;;;;-2.73;90.08;98680.14;109323;1296;22213;-82
2023/01/29 03:11:14;;;;;;;16.80;15.30;;;;;;;-2.78;89.12;98685.11;109189;1296;22206;-81
2023/01/29 03:14:01;;;;;;;19.00;17.20;;;;;;;-2.80;88.89;98685.17;109044;1296;22665;-82
2023/01/29 03:16:44;;;;;;;22.40;20.30;;;;;;;-2.82;88.85;98688.55;109244;1296;21949;-82
2023/01/29 03:19:19;;;;;;;20.00;18.20;;;;;;;-2.83;87.86;98691.64;109555;1296;22276;-81
2023/01/29 03:21:58;;;;;;;20.70;18.80;;;;;;;-2.90;88.27;98693.17;109381;1296;22232;-82
2023/01/29 03:34:15;;;;;;;20.80;17.50;;;;;;;-3.02;88.11;98704.29;107974;1304;22191;-83
2023/01/29 03:37:12;;;;;;;18.90;17.10;;;;;;;-3.06;88.38;98707.14;107933;1304;22316;-83
2023/01/29 03:39:40;;;;;;;19.10;17.30;;;;;;;-3.08;88.50;98705.26;108028;1304;22229;-81
2023/01/29 03:42:23;;;;;;;20.70;18.80;;;;;;;-3.10;88.46;98702.19;107971;1304;22218;-81
2023/01/29 03:45:12;;;;;;;23.00;21.00;;;;;;;-3.15;88.33;98705.31;108016;1304;22373;-82
2023/01/29 03:47:47;;;;;;;19.50;17.70;;;;;;;-3.21;88.11;98705.52;108029;1304;22994;-82
2023/01/29 03:50:35;;;;;;;20.10;18.20;;;;;;;-3.24;88.27;98707.27;108038;1304;22278;-82
2023/01/29 03:53:20;;;;;;;20.20;18.40;;;;;;;-3.25;88.28;98704.71;108040;1304;22187;-81
2023/01/29 03:56:02;;;;;;;20.20;18.20;;;;;;;-3.30;87.99;98702.20;108076;1304;22211;-82
2023/01/29 03:58:38;;;;;;;17.40;15.80;;;;;;;-3.33;88.15;98702.20;108037;1304;23009;-82
2023/01/29 04:01:24;;;;;;;18.60;16.80;;;;;;;-3.31;87.87;98696.23;108102;1304;22919;-82
2023/01/29 04:04:13;;;;;;;18.60;17.00;;;;;;;-3.31;87.59;98693.79;108031;1304;22149;-83
2023/01/29 04:06:46;;;;;;;20.90;19.00;;;;;;;-3.36;87.97;98688.88;108292;1296;22247;-82
2023/01/29 04:09:20;;;;;;;20.00;18.20;;;;;;;-3.34;87.78;98684.08;108958;1296;22297;-81
2023/01/29 04:15:39;;;;;;;17.80;16.20;;;;;;;-3.29;87.78;98679.26;108878;1296;22208;-81
2023/01/29 04:18:07;;;;;;;19.20;17.50;;;;;;;-3.26;87.90;98681.52;108877;1295;22864;-82
2023/01/29 04:21:00;;;;;;;19.30;17.70;;;;;;;-3.26;87.69;98682.57;108896;1296;22171;-82
2023/01/29 04:23:28;;;;;;;18.70;17.00;;;;;;;-3.28;87.55;98681.58;108882;1296;22864;-82
2023/01/29 04:26:08;;;;;;;17.50;15.90;;;;;;;-3.29;87.42;98675.16;108869;1295;22235;-82
2023/01/29 04:28:54;;;;;;;17.60;16.00;;;;;;;-3.28;87.50;98669.09;108838;1296;22933;-82
2023/01/29 04:31:27;;;;;;;16.80;15.20;;;;;;;-3.30;87.51;98664.98;108953;1296;22277;-82
2023/01/29 04:34:05;;;;;;;17.90;16.40;;;;;;;-3.30;87.51;98659.22;108841;1296;22143;-82
2023/01/29 04:36:37;;;;;;;17.60;16.00;;;;;;;-3.32;86.89;98644.29;108777;1295;22352;-82
2023/01/29 04:39:17;;;;;;;14.40;13.20;;;;;;;-3.35;86.72;98643.64;108845;1296;22235;-82
2023/01/29 04:42:11;;;;;;;13.10;11.90;;;;;;;-3.38;86.76;98639.33;109011;1296;22152;-83
2023/01/29 04:44:57;;;;;;;14.00;12.90;;;;;;;-3.39;86.42;98630.48;108955;1295;22151;-83
2023/01/29 04:47:41;;;;;;;15.00;13.70;;;;;;;-3.46;86.30;98629.17;108842;1296;22265;-83
2023/01/29 04:50:25;;;;;;;14.30;12.90;;;;;;;-3.51;86.43;98624.52;108954;1296;22286;-81
2023/01/29 04:53:05;;;;;;;13.40;12.30;;;;;;;-3.52;86.07;98620.81;108972;1296;22234;-82
2023/01/29 04:55:50;;;;;;;14.00;12.60;;;;;;;-3.54;86.09;98619.27;108937;1296;22299;-82
2023/01/29 04:58:24;;;;;;;14.60;13.20;;;;;;;-3.52;86.35;98615.31;108939;1296;22280;-81
2023/01/29 05:00:53;;;;;;;13.70;12.50;;;;;;;-3.50;85.85;98621.64;108951;1296;22183;-82
2023/01/29 05:03:25;;;;;;;15.40;14.00;;;;;;;-3.56;84.99;98624.27;108960;1296;22943;-83
2023/01/29 05:05:55;;;;;;;13.20;11.90;;;;;;;-3.65;84.73;98620.63;108963;1296;22973;-85
2023/01/29 05:08:26;;;;;;;13.10;11.80;;;;;;;-3.68;84.91;98622.52;108968;1296;23003;-83
2023/01/29 05:10:57;;;;;;;13.60;12.30;;;;;;;-3.62;85.47;98629.31;108972;1296;22791;-82
2023/01/29 05:13:28;;;;;;;12.40;11.30;;;;;;;-3.57;85.27;98628.67;108976;1296;22217;-84
2023/01/29 05:16:02;;;;;;;12.00;10.90;;;;;;;-3.57;84.83;98627.62;108818;1296;22285;-86
2023/01/29 05:18:31;;;;;;;13.70;12.50;;;;;;;-3.59;84.23;98632.63;108949;1296;22246;-83
2023/01/29 05:21:04;;;;;;;13.80;12.60;;;;;;;-3.67;84.25;98634.27;108945;1296;22142;-83
2023/01/29 05:23:32;;;;;;;11.10;9.90;;;;;;;-3.69;84.07;98635.91;108976;1296;22264;-85
2023/01/29 05:26:00;;;;;;;12.00;10.80;;;;;;;-3.68;84.34;98639.94;108947;1296;22162;-83
2023/01/29 05:28:28;;;;;;;11.40;10.30;;;;;;;-3.69;84.53;98637.44;108951;1296;22150;-83
2023/01/29 05:30:56;;;;;;;12.60;11.40;;;;;;;-3.70;84.36;98643.85;108970;1296;22253;-82
2023/01/29 05:33:30;;;;;;;13.20;11.80;;;;;;;-3.71;83.53;98657.13;108945;1296;22154;-83
2023/01/29 05:35:58;;;;;;;12.00;10.90;;;;;;;-3.75;83.57;98655.27;108955;1296;22250;-82
2023/01/29 05:38:26;;;;;;;12.50;11.40;;;;;;;-3.74;83.77;98661.80;108979;1296;22835;-83
2023/01/29 05:40:57;;;;;;;14.20;12.90;;;;;;;-3.72;82.84;98663.48;108975;1296;22303;-85
2023/01/29 05:43:25;;;;;;;15.60;14.10;;;;;;;-3.79;82.23;98662.07;108947;1296;22220;-83
2023/01/29 05:45:56;;;;;;;15.20;13.80;;;;;;;-3.87;81.81;98659.39;108949;1296;22852;-83
2023/01/29 05:48:30;;;;;;;14.20;13.00;;;;;;;-3.92;82.33;98657.27;108823;1296;22897;-85
2023/01/29 05:51:03;;;;;;;12.40;11.10;;;;;;;-3.93;82.17;98655.29;108829;1296;22202;-85
2023/01/29 05:53:31;;;;;;;12.60;11.30;;;;;;;-3.94;82.06;98648.78;108942;1296;23014;-84
2023/01/29 05:56:01;;;;;;;12.00;11.00;;;;;;;-3.90;81.54;98656.05;108982;1292;23056;-85
2023/01/29 05:58:32;;;;;;;12.40;11.30;;;;;;;-3.94;81.62;98657.02;108963;1292;22257;-84
2023/01/29 06:01:27;;;;;;;13.50;12.20;;;;;;;-3.95;81.20;98661.17;108807;1296;22296;-85
2023/01/29 06:03:55;;;;;;;16.30;14.80;;;;;;;-4.00;81.56;98661.65;108906;1296;22241;-85
2023/01/29 06:06:23;;;;;;;17.20;15.60;;;;;;;-4.01;81.88;98661.20;108941;1296;22232;-82
2023/01/29 06:08:51;;;;;;;16.00;14.50;;;;;;;-3.99;80.98;98665.42;108969;1285;22311;-84
2023/01/29 06:11:19;;;;;;;12.40;11.20;;;;;;;-3.99;80.90;98671.87;108988;1296;22259;-83
2023/01/29 06:13:47;;;;;;;12.80;11.60;;;;;;;-4.01;80.57;98673.22;108984;1296;22919;-84
2023/01/29 06:16:15;;;;;;;11.80;10.70;;;;;;;-4.01;81.02;98673.17;109003;1296;22222;-86
2023/01/29 06:18:43;;;;;;;13.60;12.30;;;;;;;-4.00;80.74;98669.05;108969;1296;22172;-85
2023/01/29 06:21:12;;;;;;;15.40;14.10;;;;;;;-4.00;81.18;98673.03;108935;1296;23082;-84
2023/01/29 06:23:40;;;;;;;14.90;13.40;;;;;;;-3.99;81.18;98673.61;108954;1296;22266;-85
2023/01/29 06:26:13;;;;;;;16.30;14.90;;;;;;;-3.99;80.23;98678.55;108973;1296;22125;-86
2023/01/29 06:28:41;;;;;;;15.90;14.40;;;;;;;-3.98;80.55;98683.21;108701;1296;22292;-84
2023/01/29 06:31:10;;;;;;;15.20;13.80;;;;;;;-3.95;80.92;98688.35;108817;1296;22973;-85
2023/01/29 06:33:57;;;;;;;16.60;14.80;;;;;;;-3.93;80.81;98687.80;108948;1296;22636;-83
2023/01/29 06:36:25;;;;;;;15.00;13.60;;;;;;;-3.96;80.84;98689.60;108927;1296;22222;-84
2023/01/29 06:38:53;;;;;;;15.30;13.60;;;;;;;-4.03;80.95;98692.84;108984;1296;23017;-84
2023/01/29 06:41:24;;;;;;;16.10;14.60;;;;;;;-4.07;81.24;98689.91;108942;1296;22262;-84
2023/01/29 06:43:52;;;;;;;15.20;13.80;;;;;;;-4.09;81.06;98692.20;108952;1296;22258;-85
2023/01/29 06:46:20;;;;;;;15.60;14.10;;;;;;;-4.11;81.45;98688.05;108941;1296;22223;-84
2023/01/29 06:48:48;;;;;;;17.00;15.30;;;;;;;-4.09;81.72;98684.17;108973;1296;22247;-84
2023/01/29 06:51:17;;;;;;;15.60;14.10;;;;;;;-4.02;82.08;98683.27;108829;1296;23087;-84
2023/01/29 06:53:45;;;;;;;17.80;16.10;;;;;;;-4.00;81.87;98678.17;108847;1296;22934;-84
2023/01/29 06:56:13;;;;;;;21.10;19.20;;;;;;;-3.99;81.95;98673.77;108951;1296;22262;-84
2023/01/29 06:58:42;;;;;;;20.80;19.00;;;;;;;-3.96;81.84;98676.80;108946;1295;22682;-85
2023/01/29 07:01:11;;;;;;;20.70;18.90;;;;;;;-3.93;82.11;98677.92;108975;1296;22120;-84
2023/01/29 07:03:55;;;;;;;20.30;18.50;;;;;;;-3.91;82.00;98680.67;108965;1296;22342;-84
2023/01/29 07:06:28;;;;;;;17.60;16.10;;;;;;;-3.90;81.99;98679.50;108945;1296;22208;-84
2023/01/29 07:08:56;;;;;;;17.30;15.20;;;;;;;-3.91;81.98;98678.11;108957;1296;22249;-84
2023/01/29 07:11:24;;;;;;;16.10;14.60;;;;;;;-3.89;81.97;98677.48;108953;1296;22269;-84
2023/01/29 07:13:52;;;;;;;17.80;16.00;;;;;;;-3.85;82.11;98679.35;108937;1296;23070;-84
2023/01/29 07:16:20;;;;;;;16.30;14.80;;;;;;;-3.84;82.05;98682.31;109051;1296;22195;-84
2023/01/29 07:18:48;;;;;;;20.70;18.70;;;;;;;-3.83;82.27;98685.69;108958;1296;22143;-84
2023/01/29 07:21:16;;;;;;;18.10;16.40;;;;;;;-3.83;82.16;98686.91;108964;1296;23276;-84
2023/01/29 07:23:44;;;;;;;31.10;27.90;;;;;;;-3.84;82.46;98689.23;108953;1296;22227;-85
2023/01/29 07:26:12;;;;;;;35.10;31.00;;;;;;;-3.86;82.12;98690.19;108957;1296;22231;-85
2023/01/29 07:28:40;;;;;;;29.00;26.00;;;;;;;-3.87;82.29;98692.53;108930;1295;22178;-83
2023/01/29 07:31:11;;;;;;;37.60;33.70;;;;;;;-3.88;82.39;98695.41;108911;1295;22466;-85
2023/01/29 07:33:43;;;;;;;27.70;24.90;;;;;;;-3.83;82.47;98699.09;108783;1295;22154;-84
2023/01/29 07:36:13;;;;;;;28.20;25.40;;;;;;;-3.80;82.46;98701.16;108849;1295;22245;-85
2023/01/29 07:38:42;;;;;;;22.80;20.50;;;;;;;-3.82;82.50;98697.85;108688;1296;22791;-85
2023/01/29 07:41:10;;;;;;;19.70;18.00;;;;;;;-3.79;82.37;98696.42;108945;1296;22161;-85
2023/01/29 07:43:39;;;;;;;20.30;18.50;;;;;;;-3.79;82.29;98697.07;108846;1296;22246;-85
2023/01/29 07:46:07;;;;;;;23.20;21.00;;;;;;;-3.80;82.14;98698.35;108946;1274;22420;-85
2023/01/29 07:48:36;;;;;;;21.10;19.10;;;;;;;-3.82;81.97;98699.46;108802;1296;22222;-84
2023/01/29 07:51:04;;;;;;;21.60;19.50;;;;;;;-3.82;82.20;98702.10;108955;1296;22896;-84
2023/01/29 07:53:32;;;;;;;22.70;20.40;;;;;;;-3.74;82.58;98703.85;108732;1296;22140;-83
2023/01/29 07:56:01;;;;;;;22.70;20.60;;;;;;;-3.61;82.67;98703.09;108979;1296;22889;-84
2023/01/29 07:58:29;;;;;;;23.10;21.00;;;;;;;-3.51;82.36;98703.69;108992;1296;22247;-84
2023/01/29 08:00:56;;;;;;;22.20;20.10;;;;;;;-3.44;82.19;98703.23;108980;1296;22254;-85
2023/01/29 08:03:25;;;;;;;24.40;22.30;;;;;;;-3.42;81.95;98703.56;108825;1294;22201;-84
2023/01/29 08:05:53;;;;;;;25.20;23.00;;;;;;;-3.38;82.05;98707.27;108977;1296;22967;-85
2023/01/29 08:08:21;;;;;;;22.70;20.50;;;;;;;-3.34;81.68;98713.43;108686;1296;22226;-84
2023/01/29 08:10:49;;;;;;;17.70;16.00;;;;;;;-3.32;81.62;98722.50;108968;1296;22172;-84
2023/01/29 08:13:17;;;;;;;19.90;17.90;;;;;;;-3.26;81.68;98727.57;108961;1296;22123;-85
2023/01/29 08:15:45;;;;;;;18.40;16.70;;;;;;;-3.17;81.87;98726.18;108776;1296;22786;-85
2023/01/29 08:18:14;;;;;;;17.80;16.30;;;;;;;-3.14;81.81;98721.83;108957;1296;22226;-85
2023/01/29 08:20:42;;;;;;;18.10;16.40;;;;;;;-3.10;81.27;98723.30;108950;1296;22244;-85
2023/01/29 08:23:15;;;;;;;28.50;25.60;;;;;;;-3.11;80.90;98732.44;108976;1296;22862;-84
2023/01/29 08:25:43;;;;;;;22.80;20.40;;;;;;;-3.18;80.71;98741.84;108837;1296;22944;-83
2023/01/29 08:28:11;;;;;;;33.40;29.30;;;;;;;-3.25;80.57;98740.44;108685;1296;22192;-84
2023/01/29 08:30:40;;;;;;;24.50;22.10;;;;;;;-3.24;81.05;98741.17;108970;1293;23030;-83
2023/01/29 08:33:08;;;;;;;39.50;34.00;;;;;;;-3.19;81.15;98735.95;108842;1296;22923;-85
2023/01/29 08:35:36;;;;;;;37.50;27.90;;;;;;;-3.15;80.92;98738.16;108985;1289;22320;-84
2023/01/29 08:38:04;;;;;;;38.40;30.60;;;;;;;-3.19;80.77;98741.06;108920;1296;22966;-84
2023/01/29 08:40:34;;;;;;;41.80;34.00;;;;;;;-3.25;80.78;98739.30;108824;1296;22277;-84
2023/01/29 08:43:06;;;;;;;36.40;31.00;;;;;;;-3.30;81.11;98739.63;108788;1296;22270;-84
2023/01/29 08:45:39;;;;;;;39.00;28.30;;;;;;;-3.28;81.28;98741.46;109003;1295;23424;-85
2023/01/29 08:48:08;;;;;;;34.60;28.80;;;;;;;-3.25;81.60;98742.54;108985;1289;22372;-84
2023/01/29 08:50:37;;;;;;;41.20;32.80;;;;;;;-3.25;82.03;98744.85;108823;1288;22200;-84
2023/01/29 08:53:07;;;;;;;36.30;31.20;;;;;;;-3.30;82.07;98734.23;108829;1294;22891;-84
2023/01/29 08:55:36;;;;;;;41.90;35.90;;;;;;;-3.32;82.19;98735.48;108858;1296;22373;-84
2023/01/29 08:58:06;;;;;;;26.00;23.30;;;;;;;-3.34;82.45;98739.62;108971;1296;22199;-82
2023/01/29 09:00:34;;;;;;;27.80;24.90;;;;;;;-3.36;82.85;98742.89;108959;1296;22944;-81
2023/01/29 09:03:03;;;;;;;38.00;31.30;;;;;;;-3.40;83.68;98743.98;108950;1296;22940;-81
2023/01/29 09:05:31;;;;;;;37.70;33.70;;;;;;;-3.39;84.04;98742.16;108948;1296;22196;-84
2023/01/29 09:07:59;;;;;;;27.70;24.70;;;;;;;-3.43;83.89;98737.03;108951;1296;22993;-83
2023/01/29 09:10:27;;;;;;;29.80;26.80;;;;;;;-3.44;83.81;98735.85;108944;1296;22947;-82
2023/01/29 09:12:55;;;;;;;22.50;20.10;;;;;;;-3.45;84.16;98738.96;108977;1296;22165;-82
2023/01/29 09:15:23;;;;;;;32.80;29.30;;;;;;;-3.41;84.49;98739.92;108798;1289;22397;-83
2023/01/29 09:17:51;;;;;;;24.90;22.60;;;;;;;-3.39;84.83;98736.13;108952;1285;22315;-83
2023/01/29 09:20:19;;;;;;;28.70;26.00;;;;;;;-3.41;84.70;98728.20;109079;1295;22118;-83
2023/01/29 09:22:49;;;;;;;28.80;26.00;;;;;;;-3.39;84.77;98729.86;108985;1296;22151;-83
2023/01/29 09:25:17;;;;;;;29.30;26.30;;;;;;;-3.44;85.10;98725.54;108922;1296;22221;-86
2023/01/29 09:27:45;;;;;;;24.70;22.30;;;;;;;-3.43;85.41;98720.45;108827;1297;23307;-82
2023/01/29 09:30:14;;;;;;;23.70;21.50;;;;;;;-3.40;85.26;98717.39;108938;1283;22290;-82
2023/01/29 09:32:42;;;;;;;20.70;18.80;;;;;;;-3.36;85.61;98710.50;108966;1296;22250;-81
2023/01/29 09:35:21;;;;;;;25.60;23.20;;;;;;;-3.33;85.87;98706.66;109039;1295;22907;-83
2023/01/29 09:37:50;;;;;;;24.80;22.40;;;;;;;-3.34;85.69;98704.07;108829;1295;22128;-83
2023/01/29 09:40:32;;;;;;;23.20;21.00;;;;;;;-3.31;85.68;98698.58;109034;1296;22272;-83
2023/01/29 09:43:17;;;;;;;23.30;21.20;;;;;;;-3.25;86.07;98697.74;108600;1297;22244;-83
2023/01/29 09:46:00;;;;;;;27.30;24.80;;;;;;;-3.23;86.15;98695.65;108859;1296;22344;-83
2023/01/29 09:48:32;;;;;;;30.70;27.80;;;;;;;-3.23;86.21;98686.96;108890;1296;22281;-83
2023/01/29 09:51:07;;;;;;;26.40;24.00;;;;;;;-3.22;85.97;98689.94;108719;1296;22201;-82
2023/01/29 09:53:39;;;;;;;;;;;;;;;-3.16;86.43;98686.95;108797;1296;22537;-81
2023/01/29 09:56:18;;;;;;;25.20;23.00;;;;;;;-3.14;86.79;98692.48;108966;1289;22318;-83
2023/01/29 09:58:47;;;;;;;26.10;23.60;;;;;;;-3.13;86.90;98692.44;108972;1296;22241;-82
2023/01/29 10:01:26;;;;;;;28.80;26.00;;;;;;;-3.19;86.54;98695.56;108947;1296;22246;-82
2023/01/29 10:04:13;;;;;;;25.60;23.30;;;;;;;-3.23;86.53;98692.08;108986;1282;22149;-82
2023/01/29 10:07:14;;;;;;;21.30;19.40;;;;;;;-3.27;86.66;98684.83;108965;1296;22366;-83
2023/01/29 10:09:58;;;;;;;21.70;19.60;;;;;;;-3.22;87.00;98680.09;108846;1296;22239;-85
2023/01/29 10:12:52;;;;;;;25.40;22.90;;;;;;;-3.21;86.74;98678.55;108938;1292;22590;-84
2023/01/29 10:15:36;;;;;;;24.00;21.70;;;;;;;-3.23;86.27;98687.33;109126;1296;22202;-82
2023/01/29 10:18:19;;;;;;;23.00;21.00;;;;;;;-3.23;86.35;98679.84;109019;1296;22285;-83
2023/01/29 10:21:25;;;;;;;22.90;20.80;;;;;;;-3.18;86.23;98676.47;108981;1292;22378;-83
2023/01/29 10:24:22;;;;;;;24.40;22.30;;;;;;;-3.16;85.70;98668.05;108835;1296;22216;-82
2023/01/29 10:26:51;;;;;;;29.70;26.90;;;;;;;-3.15;85.52;98656.05;108974;1289;22400;-82
2023/01/29 10:29:20;;;;;;;23.90;21.80;;;;;;;-3.13;84.97;98647.90;108972;1296;22322;-82
2023/01/29 10:31:55;;;;;;;24.00;22.00;;;;;;;-3.14;84.98;98639.12;108916;1294;22959;-81
2023/01/29 10:34:32;;;;;;;27.60;25.10;;;;;;;-3.09;85.18;98632.32;108987;1296;22318;-82
2023/01/29 10:37:13;;;;;;;31.30;28.20;;;;;;;-3.05;85.13;98632.55;108929;1289;22161;-83
2023/01/29 10:39:41;;;;;;;34.30;31.20;;;;;;;-3.04;84.44;98631.86;108768;1296;22220;-83
2023/01/29 10:42:18;;;;;;;30.20;27.60;;;;;;;-3.08;84.39;98622.12;109041;1289;22304;-82
2023/01/29 10:44:58;;;;;;;27.20;24.90;;;;;;;-3.04;84.35;98618.36;109001;1296;22273;-83
2023/01/29 10:47:54;;;;;;;26.60;24.20;;;;;;;-3.01;84.48;98618.95;108971;1296;22277;-82
2023/01/29 10:50:35;;;;;;;28.80;26.40;;;;;;;-2.98;84.24;98596.98;108964;1296;22226;-83
2023/01/29 10:53:20;;;;;;;32.70;30.00;;;;;;;-2.95;83.65;98595.17;109100;1295;23493;-83
2023/01/29 10:56:38;;;;;;;36.00;32.70;;;;;;;-2.96;83.21;98577.77;109024;1296;22245;-84
2023/01/29 10:59:35;;;;;;;33.10;30.10;;;;;;;-2.94;83.35;98567.72;108338;1302;23393;-84
2023/01/29 11:02:14;;;;;;;30.90;28.20;;;;;;;-2.92;82.82;98564.92;108267;1302;22189;-84
2023/01/29 11:04:42;;;;;;;31.10;28.00;;;;;;;-2.88;83.01;98559.80;108221;1302;22322;-83
2023/01/29 11:07:11;;;;;;;26.10;23.80;;;;;;;-2.77;83.02;98555.05;108375;1301;22293;-84
2023/01/29 11:09:51;;;;;;;33.00;29.70;;;;;;;-2.71;82.46;98548.38;108416;1301;22184;-84
2023/01/29 11:12:29;;;;;;;27.40;24.90;;;;;;;-2.70;82.33;98551.59;108426;1301;22430;-85
2023/01/29 11:15:17;;;;;;;30.40;27.70;;;;;;;-2.70;81.77;98551.42;108405;1301;23404;-84
2023/01/29 11:18:01;;;;;;;31.50;28.70;;;;;;;-2.74;80.94;98545.93;108382;1301;22340;-83
2023/01/29 11:20:31;;;;;;;28.70;26.20;;;;;;;-2.78;81.02;98539.23;108277;1302;22072;-83
2023/01/29 11:22:59;;;;;;;24.60;22.40;;;;;;;-2.81;81.13;98540.95;108322;1302;22261;-83
2023/01/29 11:25:31;;;;;;;21.10;19.10;;;;;;;-2.75;80.82;98537.08;108293;1302;22262;-82
2023/01/29 11:28:00;;;;;;;19.50;17.70;;;;;;;-2.72;81.06;98532.23;108317;1295;22185;-82
2023/01/29 11:30:37;;;;;;;21.20;19.40;;;;;;;-2.73;80.57;98529.79;108539;1296;22952;-83
2023/01/29 11:33:25;;;;;;;20.70;18.70;;;;;;;-2.76;79.80;98514.52;108974;1289;22184;-83
2023/01/29 11:35:55;;;;;;;19.30;17.60;;;;;;;-2.71;79.63;98512.51;108822;1296;170594;-83
2023/01/29 11:38:26;;;;;;;21.30;19.30;;;;;;;-2.69;79.57;98509.06;108975;1289;22303;-83
2023/01/29 11:41:13;;;;;;;18.20;16.30;;;;;;;-2.58;79.76;98507.30;108801;1289;22338;-82
2023/01/29 11:43:41;;;;;;;25.80;23.30;;;;;;;-2.46;78.92;98498.73;108880;1287;22356;-87
2023/01/29 11:46:14;;;;;;;22.80;20.80;;;;;;;-2.43;78.17;98500.28;109084;1292;22226;-85
2023/01/29 11:48:52;;;;;;;19.40;17.60;;;;;;;-2.47;77.51;98501.48;109087;1295;22255;-83
2023/01/29 11:51:29;;;;;;;18.50;16.70;;;;;;;-2.51;77.23;98508.46;108882;1295;22260;-83
2023/01/29 11:54:01;;;;;;;18.40;16.80;;;;;;;-2.54;76.54;98506.23;108984;1295;22994;-84
2023/01/29 11:56:39;;;;;;;19.40;17.60;;;;;;;-2.62;76.42;98501.29;109085;1295;22224;-81
2023/01/29 11:59:25;;;;;;;18.80;17.00;;;;;;;-2.64;76.23;98507.56;108934;1283;22199;-82
2023/01/29 12:01:54;;;;;;;18.40;16.70;;;;;;;-2.67;77.04;98510.28;108828;1290;22425;-79
2023/01/29 12:04:24;;;;;;;18.30;16.70;;;;;;;-2.66;77.67;98505.05;109005;1289;22248;-83
2023/01/29 12:06:53;;;;;;;20.90;18.90;;;;;;;-2.67;77.96;98501.98;108783;1296;22286;-80
2023/01/29 12:09:26;;;;;;;22.80;20.70;;;;;;;-2.65;77.94;98504.20;108953;1295;22206;-82